createdAt,value
2023-01-31T00:02:26.484Z,2.70
2023-01-31T00:04:54.876Z,2.90
2023-01-31T00:07:23.183Z,3.20
2023-01-31T00:09:51.387Z,2.90
2023-01-31T00:12:19.641Z,3.20
2023-01-31T00:14:49.214Z,3.10
2023-01-31T00:17:17.666Z,2.60
2023-01-31T00:19:46.867Z,2.30
2023-01-31T00:22:15.267Z,3.20
2023-01-31T00:24:43.386Z,2.90
2023-01-31T00:27:11.725Z,2.60
2023-01-31T00:29:42.149Z,2.40
2023-01-31T00:32:10.496Z,3.30
2023-01-31T00:34:38.711Z,2.70
2023-01-31T00:37:08.668Z,2.50
2023-01-31T00:39:37.067Z,3.10
2023-01-31T00:42:05.495Z,2.70
2023-01-31T00:44:34.616Z,2.90
2023-01-31T00:47:03.222Z,2.60
2023-01-31T00:49:32.303Z,2.70
2023-01-31T00:52:00.765Z,2.60
2023-01-31T00:54:28.989Z,2.30
2023-01-31T00:56:58.070Z,2.10
2023-01-31T00:59:26.393Z,2.80
2023-01-31T01:01:55.834Z,2.60
2023-01-31T01:04:25.510Z,2.50
2023-01-31T01:06:53.976Z,2.90
2023-01-31T01:09:28.213Z,2.30
2023-01-31T01:11:56.605Z,2.90
2023-01-31T01:14:25.096Z,2.20
2023-01-31T01:16:55.155Z,2.50
2023-01-31T01:19:23.355Z,3.00
2023-01-31T01:21:51.720Z,2.40
2023-01-31T01:24:20.388Z,3.40
2023-01-31T01:26:48.888Z,3.10
2023-01-31T01:29:17.081Z,2.50
2023-01-31T01:31:46.354Z,2.90
2023-01-31T01:34:16.436Z,2.90
2023-01-31T01:36:47.617Z,2.30
2023-01-31T01:39:18.274Z,2.50
2023-01-31T01:41:47.609Z,2.60
2023-01-31T01:44:43.103Z,2.70
2023-01-31T01:47:30.284Z,2.50
2023-01-31T01:50:08.341Z,2.60
2023-01-31T01:52:40.957Z,2.30
2023-01-31T01:55:43.272Z,2.20
2023-01-31T01:58:20.472Z,2.90
2023-01-31T02:00:50.302Z,3.00
2023-01-31T02:03:19.628Z,3.20
2023-01-31T02:05:58.411Z,3.20
2023-01-31T02:08:30.194Z,2.90
2023-01-31T02:11:04.158Z,2.60
2023-01-31T02:13:32.548Z,3.60
2023-01-31T02:16:02.166Z,2.60
2023-01-31T02:18:30.551Z,2.60
2023-01-31T02:21:12.820Z,3.30
2023-01-31T02:23:56.031Z,3.10
2023-01-31T02:26:58.465Z,2.70
2023-01-31T02:29:41.203Z,3.30
2023-01-31T02:32:36.678Z,2.80
2023-01-31T02:35:23.874Z,2.90
2023-01-31T02:38:21.950Z,3.20
2023-01-31T02:41:02.629Z,3.60
2023-01-31T02:44:11.599Z,2.70
2023-01-31T02:47:00.512Z,2.60
2023-01-31T02:49:41.008Z,2.80
2023-01-31T02:52:20.732Z,2.10
2023-01-31T02:55:23.955Z,2.60
2023-01-31T02:57:56.021Z,2.00
2023-01-31T03:00:26.589Z,2.30
2023-01-31T03:02:55.093Z,2.30
2023-01-31T03:05:24.399Z,2.40
2023-01-31T03:08:00.457Z,2.90
2023-01-31T03:11:01.092Z,1.80
2023-01-31T03:14:19.318Z,2.10
2023-01-31T03:17:08.914Z,1.80
2023-01-31T03:20:02.953Z,2.70
2023-01-31T03:22:37.636Z,2.00
2023-01-31T03:25:09.186Z,2.40
2023-01-31T03:27:40.447Z,2.20
2023-01-31T03:30:13.872Z,2.20
2023-01-31T03:32:56.334Z,2.40
2023-01-31T03:35:29.420Z,2.00
2023-01-31T03:38:07.185Z,2.10
2023-01-31T03:40:43.533Z,2.60
2023-01-31T03:43:21.207Z,2.40
2023-01-31T03:46:01.638Z,2.90
2023-01-31T03:48:34.413Z,2.40
2023-01-31T03:51:09.487Z,2.20
2023-01-31T03:53:49.050Z,2.30
2023-01-31T03:56:31.197Z,2.60
2023-01-31T03:59:04.740Z,2.60
2023-01-31T04:04:14.964Z,1.80
2023-01-31T04:06:44.411Z,2.00
2023-01-31T04:09:13.019Z,1.90
2023-01-31T04:11:47.032Z,2.00
2023-01-31T04:14:16.141Z,2.30
2023-01-31T04:16:45.311Z,2.20
2023-01-31T04:19:13.445Z,2.90
2023-01-31T04:21:41.898Z,2.50
2023-01-31T04:24:10.408Z,2.00
2023-01-31T04:26:38.742Z,2.30
2023-01-31T04:29:07.193Z,2.00
2023-01-31T04:31:35.621Z,2.40
2023-01-31T04:34:03.979Z,2.30
2023-01-31T04:36:33.513Z,2.30
2023-01-31T04:39:01.648Z,2.60
2023-01-31T04:41:29.910Z,2.90
2023-01-31T04:43:58.197Z,2.50
2023-01-31T04:46:26.680Z,2.90
2023-01-31T04:48:54.803Z,3.00
2023-01-31T04:51:23.239Z,3.00
2023-01-31T04:53:51.512Z,2.70
2023-01-31T04:56:19.903Z,2.90
2023-01-31T04:58:48.556Z,2.60
2023-01-31T05:01:16.914Z,2.70
2023-01-31T05:03:45.149Z,2.70
2023-01-31T05:06:14.337Z,2.50
2023-01-31T05:08:42.813Z,2.50
2023-01-31T05:11:11.601Z,2.70
2023-01-31T05:13:41.577Z,2.30
2023-01-31T05:16:12.188Z,2.50
2023-01-31T05:18:40.406Z,2.60
2023-01-31T05:21:08.951Z,2.30
2023-01-31T05:23:38.223Z,2.40
2023-01-31T05:26:07.048Z,2.30
2023-01-31T05:28:35.288Z,2.10
2023-01-31T05:31:07.306Z,2.40
2023-01-31T05:33:36.172Z,2.30
2023-01-31T05:36:06.047Z,3.20
2023-01-31T05:38:34.510Z,2.40
2023-01-31T05:41:03.171Z,1.90
2023-01-31T05:43:31.457Z,2.10
2023-01-31T05:45:59.948Z,2.30
2023-01-31T05:48:28.099Z,2.50
2023-01-31T05:50:56.331Z,2.40
2023-01-31T05:53:25.050Z,2.80
2023-01-31T05:55:54.415Z,3.00
2023-01-31T05:58:22.559Z,3.20
2023-01-31T06:00:50.841Z,2.90
2023-01-31T06:03:19.334Z,3.00
2023-01-31T06:05:47.666Z,2.20
2023-01-31T06:08:17.837Z,2.90
2023-01-31T06:10:46.088Z,3.00
2023-01-31T06:13:14.300Z,2.90
2023-01-31T06:15:45.963Z,2.80
2023-01-31T06:18:16.601Z,2.50
2023-01-31T06:20:45.024Z,3.10
2023-01-31T06:23:13.262Z,2.90
2023-01-31T06:25:42.565Z,2.90
2023-01-31T06:28:10.763Z,3.00
2023-01-31T06:30:39.059Z,3.30
2023-01-31T06:33:09.823Z,4.00
2023-01-31T06:35:39.219Z,3.10
2023-01-31T06:38:08.506Z,4.40
2023-01-31T06:40:36.789Z,4.50
2023-01-31T06:43:05.249Z,5.30
2023-01-31T06:45:33.670Z,5.30
2023-01-31T06:48:02.647Z,5.60
2023-01-31T06:50:30.871Z,4.40
2023-01-31T06:52:59.546Z,3.70
2023-01-31T06:55:28.152Z,3.60
2023-01-31T06:57:56.849Z,3.20
2023-01-31T07:00:25.889Z,2.80
2023-01-31T07:02:58.636Z,3.20
2023-01-31T07:05:28.817Z,2.90
2023-01-31T07:07:58.217Z,3.20
2023-01-31T07:10:26.749Z,3.20
2023-01-31T07:12:55.223Z,3.30
2023-01-31T07:15:23.579Z,3.00
2023-01-31T07:17:58.015Z,2.70
2023-01-31T07:20:28.115Z,2.90
2023-01-31T07:23:00.376Z,3.20
2023-01-31T07:25:32.729Z,3.30
2023-01-31T07:28:02.797Z,3.10
2023-01-31T07:30:31.974Z,3.20
2023-01-31T07:33:00.888Z,4.20
2023-01-31T07:35:30.112Z,5.20
2023-01-31T07:37:58.759Z,3.50
2023-01-31T07:40:27.161Z,3.90
2023-01-31T07:43:01.759Z,4.20
2023-01-31T07:45:30.103Z,4.00
2023-01-31T07:47:59.689Z,3.80
2023-01-31T07:50:28.140Z,4.00
2023-01-31T07:52:59.113Z,3.70
2023-01-31T07:55:27.717Z,4.20
2023-01-31T07:57:56.018Z,5.60
2023-01-31T08:00:43.012Z,4.40
2023-01-31T08:03:34.399Z,3.90
2023-01-31T08:06:11.311Z,4.10
2023-01-31T08:08:41.915Z,3.60
2023-01-31T08:11:10.758Z,3.70
2023-01-31T08:13:39.692Z,3.50
2023-01-31T08:16:09.657Z,3.40
2023-01-31T08:18:38.500Z,3.60
2023-01-31T08:21:08.286Z,4.70
2023-01-31T08:23:38.319Z,3.50
2023-01-31T08:26:16.227Z,3.50
2023-01-31T08:28:46.285Z,3.70
2023-01-31T08:31:18.512Z,3.90
2023-01-31T08:33:47.956Z,3.70
2023-01-31T08:36:21.966Z,3.20
2023-01-31T08:38:51.271Z,4.00
2023-01-31T08:41:21.899Z,4.10
2023-01-31T08:43:56.831Z,3.10
2023-01-31T08:46:30.961Z,3.00
2023-01-31T08:49:01.688Z,3.20
2023-01-31T08:51:30.336Z,3.30
2023-01-31T08:53:59.198Z,3.40
2023-01-31T08:56:28.106Z,3.20
2023-01-31T08:58:57.634Z,3.20
2023-01-31T09:01:26.313Z,3.20
2023-01-31T09:03:57.365Z,2.80
2023-01-31T09:06:27.731Z,2.70
2023-01-31T09:08:58.032Z,3.10
2023-01-31T09:11:30.717Z,3.60
2023-01-31T09:13:59.317Z,3.30
2023-01-31T09:16:27.917Z,3.50
2023-01-31T09:18:57.244Z,3.20
2023-01-31T09:21:26.342Z,3.00
2023-01-31T09:23:57.816Z,3.30
2023-01-31T09:26:26.918Z,3.70
2023-01-31T09:28:56.322Z,3.20
2023-01-31T09:31:24.966Z,3.00
2023-01-31T09:33:54.516Z,3.10
2023-01-31T09:36:25.306Z,3.10
2023-01-31T09:38:57.891Z,2.90
2023-01-31T09:41:33.439Z,3.00
2023-01-31T09:44:07.061Z,2.80
2023-01-31T09:46:42.383Z,3.00
2023-01-31T09:49:18.860Z,2.90
2023-01-31T09:51:52.978Z,3.60
2023-01-31T09:54:29.400Z,3.30
2023-01-31T09:57:27.099Z,3.20
2023-01-31T10:00:27.671Z,2.90
2023-01-31T10:03:23.931Z,2.60
2023-01-31T10:06:03.381Z,2.90
2023-01-31T10:08:51.430Z,2.70
2023-01-31T10:11:38.466Z,2.90
2023-01-31T10:14:15.157Z,3.30
2023-01-31T10:16:54.999Z,3.00
2023-01-31T10:19:29.455Z,3.10
2023-01-31T10:22:04.358Z,2.80
2023-01-31T10:24:41.037Z,3.00
2023-01-31T10:27:28.232Z,2.90
2023-01-31T10:30:00.866Z,3.00
2023-01-31T10:32:36.375Z,2.70
2023-01-31T10:35:15.349Z,3.10
2023-01-31T10:37:49.187Z,2.90
2023-01-31T10:40:24.612Z,3.20
2023-01-31T10:43:03.483Z,3.00
2023-01-31T10:45:34.022Z,2.50
2023-01-31T10:48:17.772Z,2.50
2023-01-31T10:51:14.165Z,2.70
2023-01-31T10:53:57.793Z,3.00
2023-01-31T10:56:35.726Z,2.70
2023-01-31T10:59:30.649Z,2.20
2023-01-31T11:02:02.326Z,3.20
2023-01-31T11:04:32.144Z,3.00
2023-01-31T11:07:02.082Z,2.70
2023-01-31T11:09:40.496Z,2.90
2023-01-31T11:12:09.757Z,2.90
2023-01-31T11:14:39.468Z,3.20
2023-01-31T11:17:16.329Z,3.10
2023-01-31T11:19:54.452Z,2.40
2023-01-31T11:22:22.853Z,2.30
2023-01-31T11:24:52.565Z,2.90
2023-01-31T11:27:43.048Z,3.00
2023-01-31T11:30:39.157Z,2.60
2023-01-31T11:33:08.028Z,3.30
2023-01-31T11:35:36.746Z,3.50
2023-01-31T11:38:11.396Z,3.00
2023-01-31T11:40:40.927Z,3.30
2023-01-31T11:43:21.961Z,3.60
2023-01-31T11:46:01.893Z,2.90
2023-01-31T11:48:48.832Z,3.20
2023-01-31T11:51:31.966Z,2.90
2023-01-31T11:54:00.559Z,3.40
2023-01-31T11:56:34.734Z,2.80
2023-01-31T11:59:09.862Z,2.70
2023-01-31T12:01:48.260Z,2.50
2023-01-31T12:04:38.974Z,2.70
2023-01-31T12:07:22.823Z,3.10
2023-01-31T12:09:51.493Z,3.40
2023-01-31T12:12:25.293Z,3.10
2023-01-31T12:14:59.621Z,3.60
2023-01-31T12:17:31.815Z,3.90
2023-01-31T12:20:27.059Z,5.20
2023-01-31T12:22:56.513Z,3.00
2023-01-31T12:25:40.008Z,3.10
2023-01-31T12:28:29.588Z,2.60
2023-01-31T12:31:36.418Z,2.50
2023-01-31T12:34:25.975Z,2.40
2023-01-31T12:37:30.081Z,3.30
2023-01-31T12:39:58.402Z,3.10
2023-01-31T12:42:58.240Z,3.30
2023-01-31T12:45:35.648Z,2.60
2023-01-31T12:48:16.591Z,2.40
2023-01-31T12:51:05.359Z,2.90
2023-01-31T12:53:50.401Z,2.90
2023-01-31T12:56:47.396Z,2.10
2023-01-31T12:59:34.654Z,2.40
2023-01-31T13:02:14.465Z,2.50
2023-01-31T13:05:04.459Z,2.50
2023-01-31T13:07:50.120Z,2.80
2023-01-31T13:10:25.445Z,2.10
2023-01-31T13:12:55.776Z,2.90
2023-01-31T13:15:31.204Z,2.50
2023-01-31T13:18:04.762Z,2.90
2023-01-31T13:20:44.468Z,2.50
2023-01-31T13:23:25.394Z,3.00
2023-01-31T13:26:05.453Z,3.20
2023-01-31T13:28:46.098Z,2.40
2023-01-31T13:31:39.711Z,2.40
2023-01-31T13:34:29.904Z,2.80
2023-01-31T13:37:05.964Z,2.20
2023-01-31T13:39:40.783Z,3.30
2023-01-31T13:42:16.358Z,2.90
2023-01-31T13:44:48.159Z,3.00
2023-01-31T13:47:23.345Z,2.70
2023-01-31T13:50:17.791Z,2.80
2023-01-31T13:52:52.771Z,2.70
2023-01-31T13:55:30.104Z,3.10
2023-01-31T13:58:20.329Z,5.10
2023-01-31T14:00:56.106Z,5.10
2023-01-31T14:03:26.568Z,6.30
2023-01-31T14:06:02.138Z,6.70
2023-01-31T14:08:36.475Z,9.20
2023-01-31T14:11:13.568Z,7.10
2023-01-31T14:13:44.639Z,9.30
2023-01-31T14:16:35.359Z,9.20
2023-01-31T14:19:19.947Z,8.40
2023-01-31T14:22:14.665Z,12.00
2023-01-31T14:24:56.548Z,26.20
2023-01-31T14:27:52.516Z,14.20
2023-01-31T14:30:30.879Z,19.30
2023-01-31T14:33:14.932Z,15.00
2023-01-31T14:36:21.877Z,14.90
2023-01-31T14:38:55.799Z,12.20
2023-01-31T14:41:56.143Z,7.40
2023-01-31T14:44:34.977Z,8.70
2023-01-31T14:47:30.980Z,7.70
2023-01-31T14:50:17.396Z,9.70
2023-01-31T14:53:10.655Z,10.70
2023-01-31T14:55:44.056Z,9.50
2023-01-31T14:58:21.011Z,7.80
2023-01-31T15:00:58.736Z,4.10
2023-01-31T15:03:30.027Z,3.60
2023-01-31T15:06:16.032Z,3.00
2023-01-31T15:08:49.832Z,2.90
2023-01-31T15:11:40.837Z,3.50
2023-01-31T15:14:36.369Z,3.70
2023-01-31T15:17:23.658Z,3.60
2023-01-31T15:20:12.440Z,3.30
2023-01-31T15:22:44.437Z,3.30
2023-01-31T15:25:31.504Z,3.40
2023-01-31T15:28:01.482Z,4.70
2023-01-31T15:30:34.388Z,4.50
2023-01-31T15:33:16.854Z,7.80
2023-01-31T15:35:53.105Z,7.80
2023-01-31T15:38:27.199Z,9.30
2023-01-31T15:41:21.124Z,7.40
2023-01-31T15:46:27.783Z,7.90
2023-01-31T15:48:57.001Z,6.90
2023-01-31T15:51:26.997Z,9.30
2023-01-31T15:54:05.931Z,8.90
2023-01-31T15:56:39.410Z,7.60
2023-01-31T16:01:47.996Z,7.10
2023-01-31T16:04:16.677Z,8.50
2023-01-31T16:06:46.862Z,9.40
2023-01-31T16:09:31.695Z,8.50
2023-01-31T16:12:02.851Z,7.80
2023-01-31T16:14:32.508Z,8.40
2023-01-31T16:17:01.193Z,7.30
2023-01-31T16:19:36.228Z,8.70
2023-01-31T16:22:21.518Z,10.50
2023-01-31T16:24:54.968Z,8.10
2023-01-31T16:29:58.652Z,7.70
2023-01-31T16:32:37.591Z,7.00
2023-01-31T16:35:07.927Z,7.50
2023-01-31T16:37:37.640Z,7.80
2023-01-31T16:40:32.231Z,8.10
2023-01-31T16:43:18.314Z,6.80
2023-01-31T16:45:53.878Z,6.40
2023-01-31T16:48:35.211Z,6.10
2023-01-31T16:51:22.290Z,9.70
2023-01-31T16:54:30.960Z,11.60
2023-01-31T16:57:02.581Z,6.60
2023-01-31T16:59:33.761Z,6.50
2023-01-31T17:02:30.255Z,7.70
2023-01-31T17:05:01.822Z,7.70
2023-01-31T17:07:35.813Z,7.90
2023-01-31T17:10:07.779Z,7.00
2023-01-31T17:12:40.486Z,6.40
2023-01-31T17:15:16.867Z,5.40
2023-01-31T17:17:45.506Z,7.10
2023-01-31T17:20:16.195Z,5.90
2023-01-31T17:22:50.399Z,6.00
2023-01-31T17:25:31.386Z,6.50
2023-01-31T17:27:59.766Z,6.90
2023-01-31T17:30:30.620Z,7.90
2023-01-31T17:32:59.850Z,6.90
2023-01-31T17:35:36.432Z,6.70
2023-01-31T17:38:05.421Z,7.20
2023-01-31T17:40:34.663Z,7.00
2023-01-31T17:43:05.226Z,6.70
2023-01-31T17:45:35.073Z,6.20
2023-01-31T17:48:03.899Z,5.90
2023-01-31T17:50:33.343Z,5.90
2023-01-31T17:53:01.714Z,6.30
2023-01-31T17:55:30.091Z,5.90
2023-01-31T17:57:58.371Z,6.30
2023-01-31T18:00:27.042Z,6.70
2023-01-31T18:02:55.445Z,6.50
2023-01-31T18:05:38.335Z,6.30
2023-01-31T18:08:07.509Z,5.00
2023-01-31T18:10:35.826Z,5.50
2023-01-31T18:13:04.232Z,6.20
2023-01-31T18:15:32.873Z,6.90
2023-01-31T18:18:01.305Z,7.00
2023-01-31T18:20:29.876Z,8.20
2023-01-31T18:22:58.292Z,10.10
2023-01-31T18:25:26.833Z,8.20
2023-01-31T18:27:55.244Z,8.50
2023-01-31T18:30:23.747Z,7.50
2023-01-31T18:32:52.157Z,7.30
2023-01-31T18:35:21.747Z,7.80
2023-01-31T18:37:50.358Z,7.10
2023-01-31T18:40:18.843Z,7.20
2023-01-31T18:42:47.301Z,10.90
2023-01-31T18:45:15.803Z,10.90
2023-01-31T18:47:44.465Z,12.10
2023-01-31T18:50:12.835Z,11.30
2023-01-31T18:52:43.992Z,12.50
2023-01-31T18:55:12.378Z,10.10
2023-01-31T18:57:40.742Z,10.90
2023-01-31T19:00:09.772Z,9.90
2023-01-31T19:02:38.241Z,10.10
2023-01-31T19:05:08.869Z,10.40
2023-01-31T19:07:37.373Z,9.60
2023-01-31T19:10:06.349Z,9.00
2023-01-31T19:12:39.178Z,7.40
2023-01-31T19:15:09.501Z,8.10
2023-01-31T19:17:38.038Z,7.50
2023-01-31T19:20:07.279Z,7.60
2023-01-31T19:22:36.239Z,6.60
2023-01-31T19:25:09.227Z,7.10
2023-01-31T19:27:39.911Z,6.50
2023-01-31T19:30:09.497Z,6.10
2023-01-31T19:32:37.916Z,6.80
2023-01-31T19:35:06.873Z,6.60
2023-01-31T19:37:35.512Z,7.00
2023-01-31T19:40:05.111Z,7.40
2023-01-31T19:42:33.703Z,7.00
2023-01-31T19:45:02.667Z,8.10
2023-01-31T19:47:32.902Z,7.80
2023-01-31T19:50:01.260Z,8.30
2023-01-31T19:52:33.193Z,8.10
2023-01-31T19:55:02.470Z,8.30
2023-01-31T19:57:30.788Z,9.10
2023-01-31T19:59:59.176Z,9.10
2023-01-31T20:02:28.613Z,7.70
2023-01-31T20:04:58.198Z,7.90
2023-01-31T20:07:26.540Z,8.40
2023-01-31T20:09:54.992Z,9.50
2023-01-31T20:12:23.744Z,8.10
2023-01-31T20:14:52.080Z,9.90
2023-01-31T20:17:20.370Z,7.60
2023-01-31T20:19:48.771Z,9.40
2023-01-31T20:22:20.048Z,8.70
2023-01-31T20:24:49.196Z,9.80
2023-01-31T20:27:17.705Z,8.40
2023-01-31T20:29:46.125Z,8.90
2023-01-31T20:32:17.404Z,8.10
2023-01-31T20:34:45.848Z,7.50
2023-01-31T20:37:14.421Z,9.20
2023-01-31T20:39:43.055Z,8.00
2023-01-31T20:42:12.061Z,10.30
2023-01-31T20:44:41.225Z,9.20
2023-01-31T20:47:09.585Z,8.60
2023-01-31T20:49:38.118Z,7.60
2023-01-31T20:52:06.511Z,8.40
2023-01-31T20:54:35.427Z,8.60
2023-01-31T20:57:03.920Z,9.10
2023-01-31T20:59:32.303Z,10.50
2023-01-31T21:02:00.672Z,8.10
2023-01-31T21:04:29.110Z,8.40
2023-01-31T21:06:57.599Z,8.70
2023-01-31T21:09:25.949Z,9.00
2023-01-31T21:11:54.573Z,7.90
2023-01-31T21:14:23.253Z,7.70
2023-01-31T21:16:51.770Z,7.80
2023-01-31T21:19:20.609Z,8.50
2023-01-31T21:21:49.231Z,8.30
2023-01-31T21:24:17.869Z,8.80
2023-01-31T21:26:46.378Z,8.50
2023-01-31T21:29:14.824Z,8.90
2023-01-31T21:31:43.396Z,8.60
2023-01-31T21:34:11.861Z,6.80
2023-01-31T21:36:40.283Z,7.40
2023-01-31T21:39:11.895Z,7.70
2023-01-31T21:41:58.882Z,9.40
2023-01-31T21:44:27.367Z,8.70
2023-01-31T21:46:56.559Z,7.40
2023-01-31T21:49:24.932Z,7.90
2023-01-31T21:51:53.463Z,6.10
2023-01-31T21:54:26.082Z,6.70
2023-01-31T21:56:55.037Z,6.20
2023-01-31T21:59:24.233Z,6.00
2023-01-31T22:01:53.012Z,6.40
2023-01-31T22:04:23.636Z,6.50
2023-01-31T22:06:53.655Z,12.00
2023-01-31T22:09:22.032Z,13.60
2023-01-31T22:11:53.132Z,8.80
2023-01-31T22:14:21.980Z,8.10
2023-01-31T22:16:52.173Z,6.50
2023-01-31T22:19:21.568Z,6.40
2023-01-31T22:21:50.046Z,5.50
2023-01-31T22:24:18.818Z,5.20
2023-01-31T22:26:47.395Z,5.10
2023-01-31T22:29:16.328Z,3.60
2023-01-31T22:31:45.511Z,4.10
2023-01-31T22:34:15.665Z,3.30
2023-01-31T22:36:44.236Z,3.60
2023-01-31T22:39:14.237Z,3.10
2023-01-31T22:41:44.825Z,3.10
2023-01-31T22:44:13.286Z,2.50
2023-01-31T22:46:41.860Z,3.30
2023-01-31T22:49:10.291Z,2.60
2023-01-31T22:51:38.745Z,2.10
2023-01-31T22:54:07.124Z,1.90
2023-01-31T22:56:35.512Z,1.90
2023-01-31T22:59:05.386Z,2.10
2023-01-31T23:01:36.721Z,1.80
2023-01-31T23:04:08.145Z,1.40
2023-01-31T23:06:37.855Z,1.60
2023-01-31T23:09:07.292Z,1.30
2023-01-31T23:11:35.529Z,1.50
2023-01-31T23:14:03.759Z,1.30
2023-01-31T23:16:50.259Z,1.50
2023-01-31T23:19:18.537Z,1.70
2023-01-31T23:21:49.093Z,1.50
2023-01-31T23:24:19.228Z,1.90
2023-01-31T23:26:47.688Z,1.60
2023-01-31T23:29:16.017Z,1.40
2023-01-31T23:31:44.752Z,1.40
2023-01-31T23:34:13.188Z,2.00
2023-01-31T23:36:41.418Z,1.30
2023-01-31T23:39:10.087Z,1.30
2023-01-31T23:41:38.636Z,1.60
2023-01-31T23:44:07.064Z,1.30
2023-01-31T23:46:35.416Z,1.40
2023-01-31T23:49:04.047Z,1.40
2023-01-31T23:51:33.930Z,1.70
2023-01-31T23:54:02.287Z,1.50
2023-01-31T23:56:30.576Z,1.30
2023-01-31T23:58:58.818Z,1.40
